createdAt,value
2019-03-06T00:00:24.043Z,87
2019-03-06T00:05:24.080Z,87
2019-03-06T00:10:24.040Z,87
2019-03-06T00:15:24.006Z,87
2019-03-06T00:20:24.047Z,88
2019-03-06T00:25:24.056Z,88
2019-03-06T00:30:24.051Z,88
2019-03-06T00:35:24.032Z,88
2019-03-06T00:40:24.010Z,88
2019-03-06T00:45:24.052Z,88
2019-03-06T00:50:24.048Z,88
2019-03-06T00:55:24.053Z,88
2019-03-06T01:00:24.036Z,87
2019-03-06T01:05:24.080Z,88
2019-03-06T01:10:24.010Z,88
2019-03-06T01:15:24.052Z,88
2019-03-06T01:20:24.058Z,88
2019-03-06T01:25:24.039Z,88
2019-03-06T01:30:24.053Z,87
2019-03-06T01:35:24.050Z,87
2019-03-06T01:40:24.010Z,87
2019-03-06T01:45:24.015Z,87
2019-03-06T01:50:24.059Z,87
2019-03-06T01:55:24.053Z,87
2019-03-06T02:00:24.038Z,87
2019-03-06T02:05:24.092Z,87
2019-03-06T02:10:24.057Z,87
2019-03-06T02:15:24.049Z,87
2019-03-06T02:20:24.085Z,87
2019-03-06T02:25:24.037Z,87
2019-03-06T02:30:24.040Z,87
2019-03-06T02:35:24.054Z,87
2019-03-06T02:40:24.008Z,87
2019-03-06T02:45:24.090Z,87
2019-03-06T02:50:24.038Z,87
2019-03-06T02:55:24.097Z,87
2019-03-06T03:00:24.012Z,87
2019-03-06T03:05:24.067Z,87
2019-03-06T03:10:24.055Z,87
2019-03-06T03:15:24.047Z,87
2019-03-06T03:20:24.050Z,87
2019-03-06T03:25:24.116Z,87
2019-03-06T03:30:24.083Z,87
2019-03-06T03:35:24.075Z,87
2019-03-06T03:40:24.061Z,87
2019-03-06T03:45:24.053Z,87
2019-03-06T03:50:24.094Z,87
2019-03-06T03:55:24.049Z,87
2019-03-06T04:00:24.057Z,87
2019-03-06T04:05:24.071Z,87
2019-03-06T04:10:24.027Z,87
2019-03-06T04:15:24.053Z,87
2019-03-06T04:20:24.023Z,87
2019-03-06T04:25:24.074Z,87
2019-03-06T04:30:24.022Z,87
2019-03-06T04:35:24.053Z,87
2019-03-06T04:40:24.057Z,87
2019-03-06T04:45:24.077Z,87
2019-03-06T04:50:24.068Z,87
2019-03-06T04:55:24.055Z,87
2019-03-06T05:00:24.105Z,87
2019-03-06T05:05:24.053Z,87
2019-03-06T05:10:24.069Z,87
2019-03-06T05:15:24.100Z,87
2019-03-06T05:20:24.049Z,87
2019-03-06T05:25:24.061Z,87
2019-03-06T05:30:24.052Z,87
2019-03-06T05:35:24.058Z,87
2019-03-06T05:40:24.022Z,87
2019-03-06T05:45:24.060Z,87
2019-03-06T05:50:24.056Z,87
2019-03-06T05:55:24.096Z,87
2019-03-06T06:00:24.077Z,87
2019-03-06T06:05:24.054Z,87
2019-03-06T06:10:24.077Z,87
2019-03-06T06:15:24.026Z,87
2019-03-06T06:20:24.073Z,87
2019-03-06T06:25:24.079Z,88
2019-03-06T06:30:24.067Z,88
2019-03-06T06:35:24.066Z,88
2019-03-06T06:40:24.056Z,88
2019-03-06T06:45:24.067Z,88
2019-03-06T06:50:24.069Z,88
2019-03-06T06:55:24.076Z,88
2019-03-06T07:00:24.058Z,88
2019-03-06T07:05:24.051Z,88
2019-03-06T07:10:24.076Z,88
2019-03-06T07:15:24.057Z,90
2019-03-06T07:20:24.106Z,91
2019-03-06T07:25:24.100Z,81
2019-03-06T07:30:24.063Z,74
2019-03-06T07:35:24.098Z,70
2019-03-06T07:40:24.063Z,67
2019-03-06T07:45:24.070Z,65
2019-03-06T07:50:24.033Z,65
2019-03-06T07:55:24.070Z,61
2019-03-06T08:00:24.067Z,63
2019-03-06T08:05:24.030Z,58
2019-03-06T08:10:24.073Z,54
2019-03-06T08:15:24.073Z,53
2019-03-06T08:20:24.068Z,56
2019-03-06T08:25:24.082Z,61
2019-03-06T08:30:24.074Z,60
2019-03-06T08:35:24.079Z,56
2019-03-06T08:40:24.056Z,55
2019-03-06T08:45:24.068Z,51
2019-03-06T08:50:24.112Z,48
2019-03-06T08:55:24.073Z,48
2019-03-06T09:00:24.086Z,52
2019-03-06T09:05:24.085Z,53
2019-03-06T09:10:24.072Z,50
2019-03-06T09:15:24.037Z,53
2019-03-06T09:20:24.075Z,49
2019-03-06T09:25:24.058Z,46
2019-03-06T09:30:24.103Z,44
2019-03-06T09:35:24.034Z,45
2019-03-06T09:40:24.077Z,43
2019-03-06T09:45:24.072Z,49
2019-03-06T09:50:24.064Z,48
2019-03-06T09:55:24.085Z,46
2019-03-06T10:00:24.078Z,46
2019-03-06T10:05:24.075Z,42
2019-03-06T10:10:24.087Z,43
2019-03-06T10:15:24.044Z,45
2019-03-06T10:20:25.231Z,48
2019-03-06T10:25:29.938Z,46
2019-03-06T10:30:24.124Z,44
2019-03-06T10:35:24.042Z,41
2019-03-06T10:40:24.082Z,39
2019-03-06T10:45:24.110Z,42
2019-03-06T10:50:26.696Z,44
2019-03-06T10:55:24.083Z,43
2019-03-06T11:00:24.067Z,42
2019-03-06T11:05:24.077Z,44
2019-03-06T11:10:24.602Z,45
2019-03-06T11:15:24.114Z,47
2019-03-06T11:20:24.074Z,47
2019-03-06T11:25:24.088Z,51
2019-03-06T11:30:24.052Z,53
2019-03-06T11:35:24.092Z,53
2019-03-06T11:40:24.083Z,52
2019-03-06T11:45:24.086Z,52
2019-03-06T11:50:24.097Z,55
2019-03-06T11:55:24.047Z,58
2019-03-06T12:00:24.046Z,58
2019-03-06T12:05:24.134Z,58
2019-03-06T12:10:24.082Z,58
2019-03-06T12:15:24.079Z,57
2019-03-06T12:20:24.080Z,56
2019-03-06T12:25:24.092Z,59
2019-03-06T12:30:24.100Z,62
2019-03-06T12:35:24.095Z,62
2019-03-06T12:40:24.086Z,62
2019-03-06T12:45:24.067Z,63
2019-03-06T12:50:24.107Z,64
2019-03-06T12:55:24.058Z,64
2019-03-06T13:00:24.092Z,65
2019-03-06T13:05:24.086Z,66
2019-03-06T13:10:24.101Z,66
2019-03-06T13:15:24.058Z,68
2019-03-06T13:20:24.147Z,68
2019-03-06T13:25:24.107Z,64
2019-03-06T13:30:24.079Z,63
2019-03-06T13:35:24.132Z,62
2019-03-06T13:40:24.097Z,62
2019-03-06T13:45:24.154Z,63
2019-03-06T13:50:24.615Z,63
2019-03-06T13:55:24.118Z,66
2019-03-06T14:00:24.091Z,63
2019-03-06T14:05:24.091Z,63
2019-03-06T14:10:24.098Z,63
2019-03-06T14:15:24.164Z,63
2019-03-06T14:20:24.110Z,62
2019-03-06T14:25:24.090Z,63
2019-03-06T14:30:24.104Z,63
2019-03-06T14:35:24.100Z,62
2019-03-06T14:40:24.095Z,60
2019-03-06T14:45:24.091Z,60
2019-03-06T14:50:24.103Z,61
2019-03-06T14:55:24.095Z,62
2019-03-06T15:00:24.094Z,62
2019-03-06T15:05:24.053Z,62
2019-03-06T15:10:24.146Z,62
2019-03-06T15:15:24.096Z,62
2019-03-06T15:20:24.108Z,63
2019-03-06T15:25:24.107Z,65
2019-03-06T15:30:24.142Z,65
2019-03-06T15:35:24.111Z,64
2019-03-06T15:40:24.127Z,63
2019-03-06T15:45:24.164Z,63
2019-03-06T15:50:24.110Z,63
2019-03-06T15:55:24.084Z,64
2019-03-06T16:00:24.117Z,64
2019-03-06T16:05:24.107Z,66
2019-03-06T16:10:24.099Z,67
2019-03-06T16:15:24.115Z,69
2019-03-06T16:20:24.094Z,69
2019-03-06T16:25:24.119Z,71
2019-03-06T16:30:24.129Z,72
2019-03-06T16:35:24.103Z,74
2019-03-06T16:40:24.073Z,75
2019-03-06T16:45:24.120Z,78
2019-03-06T16:50:24.070Z,79
2019-03-06T16:55:24.108Z,80
2019-03-06T17:00:24.114Z,81
2019-03-06T17:05:24.121Z,83
2019-03-06T17:10:24.112Z,83
2019-03-06T17:15:24.111Z,84
2019-03-06T17:20:24.105Z,84
2019-03-06T17:25:25.918Z,85
2019-03-06T17:30:24.129Z,85
2019-03-06T17:35:24.107Z,86
2019-03-06T17:40:24.107Z,87
2019-03-06T17:45:24.127Z,87
2019-03-06T17:50:24.117Z,87
2019-03-06T17:55:24.108Z,86
2019-03-06T18:00:24.103Z,86
2019-03-06T18:05:24.120Z,86
2019-03-06T18:10:24.104Z,87
2019-03-06T18:15:24.181Z,87
2019-03-06T18:20:24.111Z,87
2019-03-06T18:25:24.077Z,85
2019-03-06T18:30:24.181Z,84
2019-03-06T18:35:24.083Z,83
2019-03-06T18:40:24.112Z,83
2019-03-06T18:45:24.124Z,85
2019-03-06T18:50:24.117Z,85
2019-03-06T18:55:24.118Z,86
2019-03-06T19:00:24.112Z,87
2019-03-06T19:05:24.110Z,87
2019-03-06T19:10:24.119Z,88
2019-03-06T19:15:24.129Z,89
2019-03-06T19:20:24.176Z,89
2019-03-06T19:25:24.152Z,91
2019-03-06T19:30:24.129Z,91
2019-03-06T19:35:24.136Z,91
2019-03-06T19:40:24.128Z,91
2019-03-06T19:45:24.081Z,91
2019-03-06T19:50:25.543Z,91
2019-03-06T19:55:24.118Z,91
2019-03-06T20:00:24.110Z,91
2019-03-06T20:05:24.137Z,91
2019-03-06T20:10:24.121Z,91
2019-03-06T20:15:24.114Z,91
2019-03-06T20:20:24.140Z,91
2019-03-06T20:25:24.128Z,91
2019-03-06T20:30:24.160Z,91
2019-03-06T20:35:24.111Z,91
2019-03-06T20:40:24.127Z,91
2019-03-06T20:45:24.114Z,91
2019-03-06T20:50:24.123Z,91
2019-03-06T20:55:24.117Z,91
2019-03-06T21:00:24.128Z,91
2019-03-06T21:05:24.115Z,91
2019-03-06T21:10:24.114Z,91
2019-03-06T21:15:24.128Z,91
2019-03-06T21:20:24.127Z,91
2019-03-06T21:25:24.127Z,91
2019-03-06T21:30:24.196Z,91
2019-03-06T21:35:24.137Z,91
2019-03-06T21:40:24.128Z,91
2019-03-06T21:45:24.132Z,91
2019-03-06T21:50:24.137Z,91
2019-03-06T21:55:24.128Z,91
2019-03-06T22:00:24.124Z,91
2019-03-06T22:05:24.143Z,91
2019-03-06T22:10:24.095Z,91
2019-03-06T22:15:24.124Z,91
2019-03-06T22:20:24.135Z,91
2019-03-06T22:25:24.145Z,91
2019-03-06T22:30:24.099Z,91
2019-03-06T22:35:24.137Z,90
2019-03-06T22:40:24.139Z,90
2019-03-06T22:45:24.132Z,90
2019-03-06T22:50:24.146Z,90
2019-03-06T22:55:24.126Z,90
2019-03-06T23:00:24.126Z,89
2019-03-06T23:05:24.137Z,89
2019-03-06T23:10:24.151Z,89
2019-03-06T23:15:24.136Z,90
2019-03-06T23:20:24.132Z,89
2019-03-06T23:25:24.150Z,89
2019-03-06T23:30:24.137Z,89
2019-03-06T23:35:24.133Z,90
2019-03-06T23:40:24.137Z,90
2019-03-06T23:45:24.134Z,91
2019-03-06T23:50:24.129Z,91
2019-03-06T23:55:24.108Z,91
